Aviation Digital Data Service (ADDS)

Output produced by METARs form (0255 UTC 22 April 2018)
found at http://aviationweather.gov/adds/metars/
 
KATL 220134Z 2202/2306 11009KT P6SM SCT060 
     FM220400 10009KT P6SM BKN060 
     FM220600 10011KT P6SM OVC035 
     FM221000 10012KT P6SM VCSH OVC020 
     FM221300 10013G21KT P6SM -SHRA OVC012 
     FM221800 09013G25KT 5SM -SHRA OVC008 
     FM230000 10015G25KT 2SM SHRA OVC008